Weather History for KARM - October, 2012

Change the Weather History Date:

Tuesday, October 2, 2012

  Actual Average (KPSX) Record (KPSX)
Temperature  
Mean Temperature 72 °F -  
Max Temperature 82 °F 85 °F 95 °F (1952)
Min Temperature 62 °F 66 °F 51 °F (1944)
Cooling Degree Days 7    
Growing Degree Days 22 (Base 50)    
Moisture  
Dew Point 59 °F    
Average Humidity 69    
Maximum Humidity 94    
Minimum Humidity 35    
Precipitation  
Precipitation 0.01 in - - ()
Sea Level Pressure  
Sea Level Pressure 29.92 in    
Wind  
Wind Speed 5 mph (NW)    
Max Wind Speed 10 mph    
Max Gust Speed 17 mph    
Visibility 10 miles    
Events      
Averages and records for this station are not official NWS values.
T = Trace of Precipitation, MM = Missing Value Source: NWS Daily Summary

Daily Weather History Graph

Daily Weather History Graph

Search for Another Location

Airport or City:

Trip Planner

Search our weather history database for the weather conditions in past years. The results will help you decide how hot, cold, wet, or windy it might be!

Date:

Astronomy

Oct. 02, 2012 Rise Set
Actual Time 7:18 AM CDT 7:08 PM CDT
Civil Twilight 6:54 AM CDT 7:32 PM CDT
Nautical Twilight 6:27 AM CDT 7:59 PM CDT
Astronomical Twilight 5:59 AM CDT 8:27 PM CDT
Moon 8:38 PM CDT 9:31 AM CDT
Length of Visible Light 12h 37m
Length of Day
11h 49m
Waning Gibbous, 94% of the Moon is Illuminated
Oct 2
Waning Gibbous
Oct 8
Last Quarter
Oct 15
New
Oct 21
First Quarter
Oct 29
Full

Hourly Weather History & Observations

Time (CDT) Temp. Heat Index Dew Point Humidity Pressure Visibility Wind Dir Wind Speed Gust Speed Precip Events Conditions
12:35 AM 66.2 °F - 62.6 °F 88% 29.87 in 10.0 mi West 4.6 mph - N/A   Clear
12:55 AM 66.2 °F - 62.6 °F 88% 29.87 in 10.0 mi West 4.6 mph - N/A   Clear
1:55 AM 64.4 °F - 62.6 °F 94% 29.87 in 10.0 mi West 4.6 mph - N/A   Clear
2:15 AM 64.4 °F - 62.6 °F 94% 29.87 in 10.0 mi West 5.8 mph - N/A   Clear
2:35 AM 64.4 °F - 62.6 °F 94% 29.87 in 10.0 mi West 5.8 mph - N/A   Clear
2:55 AM 64.4 °F - 62.6 °F 94% 29.87 in 10.0 mi WNW 4.6 mph - N/A   Clear
3:15 AM 64.4 °F - 62.6 °F 94% 29.87 in 10.0 mi West 4.6 mph - N/A   Clear
3:35 AM 64.4 °F - 62.6 °F 94% 29.87 in 10.0 mi West 5.8 mph - N/A   Clear
3:55 AM 64.4 °F - 62.6 °F 94% 29.86 in 10.0 mi West 4.6 mph - N/A   Clear
4:15 AM 64.4 °F - 62.6 °F 94% 29.87 in 10.0 mi West 4.6 mph - N/A   Clear
4:35 AM 64.4 °F - 62.6 °F 94% 29.87 in 10.0 mi West 4.6 mph - N/A   Clear
4:55 AM 64.4 °F - 60.8 °F 88% 29.87 in 10.0 mi WNW 5.8 mph - N/A   Clear
5:15 AM 64.4 °F - 60.8 °F 88% 29.88 in 10.0 mi WNW 6.9 mph - N/A   Clear
5:35 AM 64.4 °F - 60.8 °F 88% 29.88 in 10.0 mi WNW 6.9 mph - N/A   Clear
5:55 AM 62.6 °F - 60.8 °F 94% 29.89 in 10.0 mi WNW 6.9 mph - N/A   Clear
6:15 AM 62.6 °F - 60.8 °F 94% 29.89 in 10.0 mi WNW 5.8 mph - N/A   Scattered Clouds
6:35 AM 64.4 °F - 60.8 °F 88% 29.90 in 10.0 mi WNW 5.8 mph - N/A   Mostly Cloudy
6:55 AM 62.6 °F - 59.0 °F 88% 29.90 in 10.0 mi WNW 4.6 mph - N/A   Overcast
7:15 AM 62.6 °F - 59.0 °F 88% 29.91 in 10.0 mi Calm Calm - N/A   Scattered Clouds
7:35 AM 62.6 °F - 59.0 °F 88% 29.91 in 10.0 mi WNW 3.5 mph - N/A   Clear
7:55 AM 62.6 °F - 59.0 °F 88% 29.91 in 10.0 mi WNW 3.5 mph - N/A   Clear
8:15 AM 64.4 °F - 59.0 °F 83% 29.92 in 10.0 mi NW 3.5 mph - N/A   Clear
8:35 AM 64.4 °F - 59.0 °F 83% 29.93 in 10.0 mi NW 6.9 mph - N/A   Clear
8:55 AM 66.2 °F - 59.0 °F 78% 29.93 in 10.0 mi NNW 6.9 mph - 0.01 in   Clear
9:15 AM 68.0 °F - 59.0 °F 73% 29.94 in 10.0 mi NNW 8.1 mph - N/A   Clear
9:35 AM 69.8 °F - 59.0 °F 68% 29.94 in 10.0 mi NNW 8.1 mph - N/A   Clear
9:55 AM 69.8 °F - 59.0 °F 68% 29.95 in 10.0 mi NNW 8.1 mph - N/A   Clear
10:15 AM 71.6 °F - 60.8 °F 69% 29.95 in 10.0 mi NNW 8.1 mph - N/A   Clear
10:35 AM 73.4 °F - 59.0 °F 61% 29.96 in 10.0 mi NNW 9.2 mph - N/A   Scattered Clouds
10:55 AM 75.2 °F - 59.0 °F 57% 29.96 in 10.0 mi NW 8.1 mph - N/A   Mostly Cloudy
11:15 AM 73.4 °F - 59.0 °F 61% 29.96 in 10.0 mi NNW 8.1 mph - N/A   Mostly Cloudy
11:35 AM 73.4 °F - 59.0 °F 61% 29.96 in 10.0 mi NW 8.1 mph - N/A   Scattered Clouds
11:55 AM 77.0 °F - 59.0 °F 54% 29.96 in 10.0 mi West 6.9 mph - N/A   Clear
12:15 PM 78.8 °F - 59.0 °F 51% 29.95 in 10.0 mi NNW 8.1 mph - N/A   Clear
12:35 PM 78.8 °F - 59.0 °F 51% 29.95 in 10.0 mi NNW 8.1 mph - N/A   Clear
12:55 PM 78.8 °F - 59.0 °F 51% 29.94 in 10.0 mi NNE 5.8 mph - N/A   Clear
1:15 PM 80.6 °F 81.5 °F 60.8 °F 51% 29.93 in 10.0 mi NNW 6.9 mph - N/A   Clear
1:35 PM 80.6 °F 80.8 °F 57.2 °F 45% 29.93 in 10.0 mi NW 4.6 mph - N/A   Clear
1:55 PM 80.6 °F 80.3 °F 53.6 °F 39% 29.92 in 10.0 mi NW 4.6 mph - N/A   Clear
2:15 PM 80.6 °F - 51.8 °F 37% 29.91 in 10.0 mi NNW 4.6 mph - N/A   Clear
2:35 PM 82.4 °F 81.7 °F 55.4 °F 39% 29.90 in 10.0 mi NNW 3.5 mph - N/A   Clear
2:55 PM 82.4 °F 81.4 °F 53.6 °F 37% 29.90 in 10.0 mi West 5.8 mph - N/A   Clear
3:35 PM 82.4 °F 81.7 °F 55.4 °F 39% 29.89 in 10.0 mi NNW 6.9 mph - N/A   Clear
3:55 PM 82.4 °F - 51.8 °F 35% 29.89 in 10.0 mi NW 9.2 mph 17.3 mph N/A   Clear
4:15 PM 82.4 °F 81.4 °F 53.6 °F 37% 29.89 in 10.0 mi NNW 8.1 mph - N/A   Clear
4:35 PM 82.4 °F - 51.8 °F 35% 29.89 in 10.0 mi NNW 8.1 mph - N/A   Clear
4:55 PM 80.6 °F 80.3 °F 53.6 °F 39% 29.89 in 10.0 mi NNW 8.1 mph - N/A   Clear
5:15 PM 80.6 °F 80.3 °F 53.6 °F 39% 29.89 in 10.0 mi NW 9.2 mph - N/A   Clear
5:35 PM 80.6 °F 80.3 °F 53.6 °F 39% 29.89 in 10.0 mi NNW 5.8 mph - N/A   Clear
5:55 PM 80.6 °F 80.3 °F 53.6 °F 39% 29.90 in 10.0 mi NNW 6.9 mph - N/A   Clear
6:15 PM 78.8 °F - 55.4 °F 44% 29.90 in 10.0 mi North 4.6 mph - N/A   Clear
6:35 PM 78.8 °F - 57.2 °F 47% 29.90 in 10.0 mi North 4.6 mph - N/A   Clear
6:55 PM 77.0 °F - 59.0 °F 54% 29.91 in 10.0 mi North 4.6 mph - N/A   Clear
7:15 PM 73.4 °F - 59.0 °F 61% 29.91 in 10.0 mi North 4.6 mph - N/A   Clear
7:35 PM 71.6 °F - 59.0 °F 64% 29.92 in 10.0 mi NNW 5.8 mph - N/A   Clear
7:55 PM 71.6 °F - 59.0 °F 64% 29.93 in 10.0 mi NNW 10.4 mph - N/A   Clear
8:15 PM 71.6 °F - 59.0 °F 64% 29.93 in 10.0 mi North 5.8 mph - N/A   Scattered Clouds
8:35 PM 69.8 °F - 60.8 °F 73% 29.94 in 10.0 mi North 4.6 mph - N/A   Overcast
9:15 PM 68.0 °F - 60.8 °F 78% 29.96 in 10.0 mi NNE 4.6 mph - N/A   Mostly Cloudy
9:55 PM 66.2 °F - 60.8 °F 83% 29.97 in 10.0 mi Calm Calm - N/A   Clear
10:15 PM 68.0 °F - 60.8 °F 78% 29.97 in 10.0 mi Calm Calm - N/A   Clear
10:35 PM 64.4 °F - 59.0 °F 83% 29.98 in 10.0 mi East 3.5 mph - N/A   Clear
10:55 PM 64.4 °F - 59.0 °F 83% 29.98 in 10.0 mi Calm Calm - N/A   Clear
11:15 PM 64.4 °F - 59.0 °F 83% 29.98 in 10.0 mi Calm Calm - N/A   Clear
11:35 PM 62.6 °F - 59.0 °F 88% 29.99 in 10.0 mi NNW 3.5 mph - N/A   Clear
11:55 PM 62.6 °F - 59.0 °F 88% 29.98 in 10.0 mi Calm Calm - N/A   Clear